Latest Coastal Weather Observations for Smithton

IDT60701

Issued at 1:32 am EST Wednesday 29 July 2015 (issued every 10 minutes, with the page automatically refreshed every 10 minutes)

About coastal observations | Map of coastal stations | Coastal observations for TAS | Marine services | Other Formats
Station Details ID: 091292 Name: SMITHTON AERODROME Lat: -40.83 Lon: 145.08 Height: 7.5 m
Data from the previous 72 hours. | See also: Recent months at Smithton
Date/Time
EST
Temp

°C
Wind Pressure Rain
since 9am
mm
Weather Cloud Vis
km
Sea
Height
m
Swell
Dir
 
Speed
knots
Gust
knots
hPa Trend Height
m
Period
s
Dir
29/01:30am 4.8 CALM 0 0 1030.4 - 1.4 - - - - - - -
29/01:00am 5.4 NW 1 4 1030.5 - 1.4 - - - - - - -
29/12:30am 6.1 NW 5 6 1030.9 - 1.4 - - - - - - -
29/12:00am 5.8 CALM 0 0 1031.1 - 1.4 - - - - - - -
 
Date/Time
EST
Temp

°C
Wind Pressure Rain
since 9am
mm
Weather Cloud Vis
km
Sea
Height
m
Swell
Dir
 
Speed
knots
Gust
knots
hPa Trend Height
m
Period
s
Dir
28/11:30pm 6.4 SW 4 7 1031.3 - 1.2 - - - - - - -
28/11:00pm 6.2 W 2 3 1031.0 - 1.2 - - - - - - -
28/10:30pm 6.3 W 4 5 1031.1 - 1.2 - - - - - - -
28/10:00pm 6.5 WSW 6 7 1031.2 - 1.2 - - - - - - -
28/09:30pm 7.3 WNW 3 4 1031.1 - 1.2 - - - - - - -
28/09:00pm 7.1 WNW 6 7 1031.1 - 1.2 - - - - - - -
28/08:30pm 7.3 W 6 7 1031.1 - 1.2 - - - - - - -
28/08:00pm 7.1 W 6 7 1030.9 - 1.2 - - - - - - -
28/07:30pm 8.5 W 7 8 1030.9 - 1.2 - - - - - - -
28/07:00pm 9.1 W 8 11 1030.8 - 1.2 - - - - - - -
28/06:30pm 9.4 WSW 9 11 1030.7 - 1.2 - - - - - - -
28/06:00pm 9.5 W 10 13 1030.5 - 1.2 - - - - - - -
28/05:30pm 9.6 W 9 12 1030.1 - 1.2 - - - - - - -
28/05:00pm 10.5 W 11 14 1030.1 - 1.2 - - - - - - -
28/04:30pm 11.3 W 13 17 1030.0 - 1.2 - - - - - - -
28/04:00pm 11.9 WSW 11 15 1029.8 - 1.2 - - - - - - -
28/03:30pm 11.5 W 12 17 1029.8 - 1.2 - - - - - - -
28/03:00pm 12.1 SW 10 18 1029.7 - 1.2 - - - - - - -
28/02:30pm 12.0 W 14 17 1029.4 - 1.2 - - - - - - -
28/02:00pm 11.5 W 14 19 1029.6 - 1.2 - - - - - - -
28/01:30pm 11.3 WSW 16 21 1029.6 - 1.2 - - - - - - -
28/01:00pm 11.3 WSW 15 22 1029.8 - 0.6 - - - - - - -
28/12:30pm 12.0 W 12 17 1029.9 - 0.4 - - - - - - -
28/12:00pm 11.3 WSW 14 19 1030.2 - 0.4 - - - - - - -
28/11:30am 11.9 WSW 14 21 1030.5 - 0.2 - - - - - - -
28/11:00am 11.9 W 12 18 1030.5 - 0.2 - - - - - - -
28/10:30am 11.5 W 13 20 1030.5 - 0.0 - - - - - - -
28/10:00am 10.9 WSW 13 18 1030.3 - 0.0 - - - - - - -
28/09:30am 10.7 W 12 16 1029.9 - 0.0 - - - - - - -
28/09:00am 9.6 W 14 19 1029.9 - 4.2 - - - - - - -
28/08:30am 9.0 WSW 10 13 1029.7 - 4.2 - - - - - - -
28/08:00am 8.3 W 9 13 1029.4 - 4.2 - - - - - - -
28/07:30am 7.6 W 8 10 1029.0 - 4.2 - - - - - - -
28/07:00am 8.2 WSW 10 12 1028.6 - 4.2 - - - - - - -
28/06:30am 8.2 WSW 10 13 1028.2 - 4.2 - - - - - - -
28/06:00am 8.2 WSW 10 13 1028.0 - 4.2 - - - - - - -
28/05:30am 8.7 WSW 13 16 1027.7 - 4.2 - - - - - - -
28/05:00am 8.5 WSW 11 14 1027.5 - 4.0 - - - - - - -
28/04:30am 9.0 WSW 15 19 1027.3 - 4.0 - - - - - - -
28/04:00am 9.3 WSW 15 23 1027.2 - 3.6 - - - - - - -
28/03:30am 9.2 W 14 21 1027.2 - 3.6 - - - - - - -
28/03:00am 8.9 WSW 11 15 1027.0 - 3.6 - - - - - - -
28/02:30am 9.4 W 13 17 1027.1 - 3.6 - - - - - - -
28/02:00am 9.4 WSW 13 18 1027.0 - 3.4 - - - - - - -
28/01:30am 9.0 W 10 13 1026.6 - 3.2 - - - - - - -
28/01:00am 8.1 W 8 10 1026.4 - 3.0 - - - - - - -
28/12:30am 8.5 WSW 9 11 1026.4 - 3.0 - - - - - - -
28/12:00am 7.4 SW 6 7 1026.3 - 3.0 - - - - - - -
 
Date/Time
EST
Temp

°C
Wind Pressure Rain
since 9am
mm
Weather Cloud Vis
km
Sea
Height
m
Swell
Dir
 
Speed
knots
Gust
knots
hPa Trend Height
m
Period
s
Dir
27/11:30pm 8.5 SSW 9 11 1026.2 - 3.0 - - - - - - -
27/11:00pm 9.1 SW 10 14 1026.0 - 3.0 - - - - - - -
27/10:30pm 9.3 SW 11 15 1026.0 - 3.0 - - - - - - -
27/10:00pm 9.0 WSW 10 13 1025.7 - 3.0 - - - - - - -
27/09:30pm 9.3 WSW 13 17 1025.6 - 3.0 - - - - - - -
27/09:00pm 9.5 WSW 12 16 1025.3 - 3.0 - - - - - - -
27/08:30pm 9.6 WSW 14 20 1025.0 - 3.0 - - - - - - -
27/08:00pm 9.8 WSW 11 15 1024.9 - 3.0 - - - - - - -
27/07:30pm 9.8 WSW 12 16 1024.5 - 3.0 - - - - - - -
27/07:00pm 9.9 W 13 19 1024.2 - 3.0 - - - - - - -
27/06:30pm 9.7 W 10 15 1024.1 - 2.6 - - - - - - -
27/06:00pm 9.3 W 10 13 1024.0 - 2.6 - - - - - - -
27/05:30pm 9.4 WSW 14 20 1023.8 - 2.4 - - - - - - -
27/05:00pm 9.9 WSW 14 17 1023.4 - 1.6 - - - - - - -
27/04:30pm 10.5 SW 13 19 1023.2 - 1.6 - - - - - - -
27/04:00pm 10.2 SW 12 16 1023.1 - 1.6 - - - - - - -
27/03:30pm 10.6 WSW 16 21 1022.9 - 1.6 - - - - - - -
27/03:00pm 11.9 WSW 15 22 1022.4 - 1.4 - - - - - - -
27/02:30pm 10.8 SW 14 18 1022.3 - 1.4 - - - - - - -
27/02:00pm 12.7 WSW 17 25 1021.9 - 1.4 - - - - - - -
27/01:30pm 11.4 WSW 16 21 1022.0 - 1.4 - - - - - - -
27/01:00pm 10.0 WSW 19 27 1022.0 - 1.4 - - - - - - -
27/12:45pm 10.7 WSW 18 29 1022.1 - 1.2 - - - - - - -
27/12:30pm 10.3 W 15 23 1021.9 - 1.2 - - - - - - -
27/12:13pm 11.0 WSW 16 26 1021.9 - 1.2 - - - - - - -
27/12:00pm 10.4 WSW 15 19 1022.0 - 1.2 - - - - - - -
27/11:34am 10.1 WSW 18 30 1022.3 - 1.2 - - - - - - -
27/11:30am 11.2 WSW 17 23 1022.2 - 1.0 - - - - - - -
27/11:03am 9.7 WSW 17 30 1022.3 - 0.6 - - - - - - -
27/11:00am 10.6 WSW 15 22 1022.4 - 0.2 - - - - - - -
27/10:43am 9.5 WSW 19 29 1022.0 - 0.2 - - - - - - -
27/10:30am 10.0 WSW 19 25 1021.9 - 0.2 - - - - - - -
27/10:18am 10.1 W 17 28 1022.0 - 0.2 - - - - - - -
27/10:00am 9.8 WSW 17 24 1021.7 - 0.2 - - - - - - -
27/09:30am 9.4 W 16 21 1021.6 - 0.0 - - - - - - -
27/09:15am 9.2 W 15 26 1021.2 - 0.0 - - - - - - -
27/09:00am 8.5 W 12 16 1021.2 - 7.0 - - - - - - -
27/08:30am 8.5 WSW 12 15 1021.0 - 6.8 - - - - - - -
27/08:00am 7.5 W 13 16 1020.6 - 6.8 - - - - - - -
27/07:30am 7.0 W 9 10 1020.4 - 6.6 - - - - - - -
27/07:00am 7.0 WSW 13 16 1020.0 - 6.6 - - - - - - -
27/06:30am 7.1 WSW 14 19 1019.4 - 6.6 - - - - - - -
27/06:00am 6.6 WSW 11 14 1019.1 - 6.6 - - - - - - -
27/05:30am 6.6 WSW 13 18 1018.8 - 6.6 - - - - - - -
27/05:00am 6.5 WSW 16 22 1018.3 - 6.6 - - - - - - -
27/04:43am 6.9 WSW 16 26 1018.2 - 6.6 - - - - - - -
27/04:30am 6.7 WSW 16 21 1018.0 - 6.6 - - - - - - -
27/04:00am 6.4 SW 18 26 1017.5 - 6.6 - - - - - - -
27/03:30am 5.9 SW 14 19 1017.3 - 6.6 - - - - - - -
27/03:00am 6.1 WSW 20 26 1017.1 - 6.6 - - - - - - -
27/02:30am 5.7 SW 19 27 1016.7 - 6.6 - - - - - - -
27/02:10am 5.8 WSW 15 25 1016.6 - 6.6 - - - - - - -
27/02:00am 5.7 SW 12 17 1016.6 - 6.6 - - - - - - -
27/01:30am 4.8 WSW 11 15 1016.0 - 6.6 - - - - - - -
27/01:00am 5.7 SW 16 26 1016.1 - 6.4 - - - - - - -
27/12:30am 5.5 SW 17 24 1015.3 - 6.4 - - - - - - -
27/12:08am 6.1 SW 19 33 1015.5 - 6.4 - - - - - - -
27/12:00am 5.7 WSW 15 20 1015.1 - 6.4 - - - - - - -
 
Date/Time
EST
Temp

°C
Wind Pressure Rain
since 9am
mm
Weather Cloud Vis
km
Sea
Height
m
Swell
Dir
 
Speed
knots
Gust
knots
hPa Trend Height
m
Period
s
Dir
26/11:30pm 5.5 WSW 13 19 1015.1 - 6.4 - - - - - - -
26/11:00pm 5.3 WSW 14 19 1014.2 - 6.4 - - - - - - -
26/10:43pm 5.9 W 19 27 1014.2 - 6.4 - - - - - - -
26/10:31pm 6.3 SW 20 31 1014.1 - 6.4 - - - - - - -
26/10:30pm 6.3 SW 20 27 1014.1 - 6.4 - - - - - - -
26/10:03pm 6.7 WSW 24 35 1013.8 - 6.4 - - - - - - -
26/10:00pm 6.9 WSW 29 35 1013.6 - 6.4 - - - - - - -
26/09:38pm 6.0 W 16 26 1013.1 - 6.4 - - - - - - -
26/09:30pm 6.4 W 18 26 1013.1 - 6.4 - - - - - - -
26/09:00pm 6.3 WSW 17 23 1012.3 - 6.4 - - - - - - -
26/08:33pm 6.9 WSW 19 29 1012.1 - 6.4 - - - - - - -
26/08:30pm 6.7 WSW 18 25 1011.9 - 6.4 - - - - - - -
26/08:21pm 6.6 WSW 21 31 1011.6 - 6.4 - - - - - - -
26/08:00pm 6.9 SW 21 29 1011.0 - 6.4 - - - - - - -
26/07:30pm 7.5 WSW 22 32 1010.2 - 6.4 - - - - - - -
26/07:03pm 7.9 WSW 23 35 1009.2 - 6.4 - - - - - - -
26/07:00pm 7.8 WSW 23 31 1009.5 - 6.4 - - - - - - -
26/06:35pm 7.6 WSW 25 36 1008.5 - 6.4 - - - - - - -
26/06:30pm 7.4 WSW 25 33 1008.5 - 6.4 - - - - - - -
26/06:02pm 7.2 WSW 30 45 1007.8 - 6.2 - - - - - - -
26/06:00pm 7.1 WSW 29 38 1008.0 - 6.2 - - - - - - -
26/05:39pm 7.8 WSW 23 33 1006.8 - 6.2 - - - - - - -
26/05:30pm 7.7 WSW 24 32 1006.6 - 6.2 - - - - - - -
26/05:00pm 7.7 WSW 26 37 1005.6 - 6.0 - - - - - - -
26/04:30pm 7.6 WSW 23 35 1004.6 - 5.8 - - - - - - -
26/04:00pm 7.3 WSW 22 38 1004.2 - 5.4 - - - - - - -
26/03:30pm 7.1 W 26 38 1003.3 - 5.0 - - - - - - -
26/03:10pm 6.5 W 24 36 1003.2 - 4.8 - - - - - - -
26/03:00pm 6.5 W 24 32 1003.4 - 4.2 - - - - - - -
26/02:34pm 6.6 W 26 36 1002.5 - 3.4 - - - - - - -
26/02:30pm 6.7 W 27 36 1002.8 - 3.2 - - - - - - -
26/02:01pm 7.6 W 27 37 1002.0 - 2.4 - - - - - - -
26/02:00pm 7.6 W 27 34 1002.1 - 2.4 - - - - - - -
26/01:49pm 8.4 W 28 45 1001.8 - 1.8 - - - - - - -
26/01:30pm 8.0 W 25 35 1002.3 - 1.8 - - - - - - -
26/01:00pm 6.4 W 29 42 1002.6 - 1.8 - - - - - - -
26/12:50pm 8.1 W 26 42 1002.5 - 1.6 - - - - - - -
26/12:40pm 7.7 W 19 29 1002.4 - 1.6 - - - - - - -
26/12:30pm 6.5 W 18 27 1002.8 - 1.6 - - - - - - -
26/12:21pm 6.4 W 21 46 1003.1 - 1.6 - - - - - - -
26/12:08pm 8.6 W 34 45 1002.6 - 1.4 - - - - - - -
26/12:04pm 9.2 W 37 45 1002.3 - 1.4 - - - - - - -
26/12:01pm 10.4 W 23 35 1002.4 - 1.4 - - - - - - -
26/12:00pm 10.0 W 22 31 1002.4 - 1.4 - - - - - - -
26/11:41am 8.0 W 19 32 1002.6 - 1.4 - - - - - - -
26/11:30am 7.7 W 19 27 1002.8 - 1.4 - - - - - - -
26/11:03am 7.1 W 19 29 1003.0 - 1.2 - - - - - - -
26/11:00am 7.2 W 21 29 1003.1 - 1.0 - - - - - - -
26/10:30am 9.2 W 22 32 1002.4 - 0.2 - - - - - - -
26/10:07am 7.8 W 21 33 1002.2 - 0.0 - - - - - - -
26/10:00am 7.8 W 20 28 1002.1 - 0.0 - - - - - - -
26/09:30am 8.0 W 20 31 1001.9 - 0.0 - - - - - - -
26/09:00am 6.7 WNW 21 33 1001.7 - 9.8 - - - - - - -
26/08:48am 7.1 WNW 15 25 1001.7 - 9.8 - - - - - - -
26/08:30am 6.6 WNW 16 21 1001.4 - 9.8 - - - - - - -
26/08:00am 6.5 W 20 28 1001.5 - 9.8 - - - - - - -
26/07:30am 6.4 WNW 16 21 1001.3 - 9.8 - - - - - - -
26/07:09am 6.0 W 17 28 1001.1 - 9.6 - - - - - - -
26/07:00am 6.0 W 16 22 1001.2 - 9.4 - - - - - - -
26/06:42am 5.5 W 14 27 1001.3 - 9.2 - - - - - - -
26/06:30am 6.1 WNW 20 30 1001.5 - 8.4 - - - - - - -
26/06:00am 6.7 W 23 37 1000.9 - 8.0 - - - - - - -
26/05:52am 6.7 W 27 37 1000.8 - 8.0 - - - - - - -
26/05:51am 6.9 W 29 37 1000.9 - 8.0 - - - - - - -
26/05:37am 7.4 WNW 19 29 1000.5 - 7.8 - - - - - - -
26/05:30am 6.8 NNW 13 16 1000.4 - 7.8 - - - - - - -
26/05:00am 8.0 W 19 26 1000.1 - 7.8 - - - - - - -
26/04:40am 8.4 WNW 19 30 999.8 - 7.8 - - - - - - -
26/04:30am 8.2 WNW 17 24 999.5 - 7.8 - - - - - - -
26/04:12am 8.2 WNW 16 27 999.8 - 7.8 - - - - - - -
26/04:00am 7.7 WNW 15 23 999.6 - 7.8 - - - - - - -
26/03:30am 7.1 WNW 14 18 999.8 - 7.8 - - - - - - -
26/03:01am 8.6 WNW 19 30 999.9 - 7.8 - - - - - - -
26/03:00am 8.7 WNW 18 27 1000.0 - 7.8 - - - - - - -
26/02:30am 9.0 WNW 21 33 1000.0 - 7.8 - - - - - - -
26/02:27am 9.0 WNW 19 33 999.9 - 7.8 - - - - - - -
26/02:00am 8.8 WNW 22 29 999.8 - 7.8 - - - - - - -

Other Formats:

Comma delimited format used in spreadsheet applications
http://www.bom.gov.au/fwo/IDT60701/IDT60701.94953.axf

JavaScript Object Notation format (JSON) in row-major order
http://www.bom.gov.au/fwo/IDT60701/IDT60701.94953.json